Time;durP1;ratioP1;P1;durP2;ratioP2;P2;SDS_P1;SDS_P2;PMS_P1;PMS_P2;Temp;Humidity;BMP_temperature;BMP_pressure;BME280_temperature;BME280_humidity;BME280_pressure;Samples;Min_cycle;Max_cycle;Signal;HPM_P1;HPM_P2
2023/07/28 00:00:43;;;;;;;5.40;5.00;;;;;;;18.05;56.23;94937.00;5114238;28;20458;-76
2023/07/28 00:03:10;;;;;;;7.23;4.60;;;;;;;18.04;56.00;94927.41;5114080;28;20779;-76
2023/07/28 00:05:37;;;;;;;4.57;4.27;;;;;;;18.03;56.38;94936.38;5113480;28;20443;-76
2023/07/28 00:08:04;;;;;;;5.57;5.07;;;;;;;18.01;56.63;94930.41;5113616;28;20478;-75
2023/07/28 00:10:31;;;;;;;5.40;5.00;;;;;;;17.98;56.46;94928.09;5113958;28;20446;-76
2023/07/28 00:13:02;;;;;;;4.77;4.47;;;;;;;17.93;56.72;94931.28;5113456;28;20449;-76
2023/07/28 00:15:29;;;;;;;5.47;5.00;;;;;;;17.90;56.85;94926.28;5113698;28;20459;-76
2023/07/28 00:17:56;;;;;;;4.77;4.47;;;;;;;17.89;56.87;94929.94;5113335;28;20446;-76
2023/07/28 00:20:22;;;;;;;5.60;5.20;;;;;;;17.85;57.22;94921.50;5113476;28;20777;-76
2023/07/28 00:22:49;;;;;;;5.10;4.70;;;;;;;17.87;56.91;94924.81;5113184;28;20448;-75
2023/07/28 00:25:16;;;;;;;4.67;4.30;;;;;;;17.81;57.49;94917.56;5113477;28;20850;-76
2023/07/28 00:27:43;;;;;;;5.30;4.80;;;;;;;17.73;57.27;94920.25;5113342;28;20486;-76
2023/07/28 00:30:12;;;;;;;5.30;4.90;;;;;;;17.66;58.12;94913.97;5112893;28;20459;-75
2023/07/28 00:32:39;;;;;;;7.60;5.30;;;;;;;17.63;58.33;94915.09;5113432;28;20534;-75
2023/07/28 00:35:07;;;;;;;4.90;4.50;;;;;;;17.66;58.38;94913.97;5076879;28;20786;-76
2023/07/28 00:37:34;;;;;;;5.10;4.70;;;;;;;17.51;58.71;94916.50;5113388;28;20472;-76
2023/07/28 00:40:01;;;;;;;5.77;5.27;;;;;;;17.42;59.05;94922.00;5113115;28;20446;-76
2023/07/28 00:42:27;;;;;;;4.90;4.50;;;;;;;17.39;58.97;94917.88;5113016;28;20454;-76
2023/07/28 00:44:54;;;;;;;4.97;4.57;;;;;;;17.33;59.28;94918.53;5113004;28;20531;-75
2023/07/28 00:47:22;;;;;;;14.80;6.57;;;;;;;17.32;59.28;94917.69;5077071;28;20493;-76
2023/07/28 00:49:49;;;;;;;5.20;4.87;;;;;;;17.33;58.81;94929.13;5077515;28;20453;-76
2023/07/28 00:52:16;;;;;;;6.03;5.43;;;;;;;17.28;59.02;94926.19;5113060;28;20814;-76
2023/07/28 00:54:43;;;;;;;5.37;4.13;;;;;;;17.24;59.49;94923.03;5113140;28;20443;-76
2023/07/28 00:57:10;;;;;;;5.63;5.20;;;;;;;17.17;59.76;94929.19;5113005;28;20454;-76
2023/07/28 00:59:37;;;;;;;5.20;4.80;;;;;;;16.89;60.59;94931.41;5110966;28;20443;-76
2023/07/28 01:02:04;;;;;;;6.73;4.90;;;;;;;16.91;60.25;94930.22;5112970;28;20494;-76
2023/07/28 01:04:32;;;;;;;5.10;4.80;;;;;;;16.98;60.20;94933.84;5113017;28;20453;-75
2023/07/28 01:07:06;;;;;;;6.23;5.67;;;;;;;17.00;60.47;94934.53;5114503;28;20437;-76
2023/07/28 01:09:43;;;;;;;5.03;4.63;;;;;;;17.03;60.41;94930.69;5115313;28;20450;-76
2023/07/28 01:12:10;;;;;;;5.87;5.37;;;;;;;17.05;60.83;94923.41;5115200;28;20442;-75
2023/07/28 01:14:39;;;;;;;4.90;4.50;;;;;;;16.99;60.11;94922.25;5116997;28;20438;-75
2023/07/28 01:17:06;;;;;;;5.10;4.70;;;;;;;17.01;60.00;94922.91;5117330;28;20440;-76
2023/07/28 01:19:35;;;;;;;5.10;4.80;;;;;;;17.03;60.50;94920.91;5080776;28;20442;-76
2023/07/28 01:22:23;;;;;;;6.00;5.00;;;;;;;17.03;60.73;94926.22;5116884;28;20495;-76
2023/07/28 01:24:59;;;;;;;6.80;4.43;;;;;;;16.99;60.79;94921.44;5116641;28;20460;-76
2023/07/28 01:27:29;;;;;;;5.47;4.97;;;;;;;16.99;60.53;94916.13;5116445;28;20808;-76
2023/07/28 01:29:56;;;;;;;5.37;4.97;;;;;;;17.09;60.82;94926.56;5116977;28;20442;-75
2023/07/28 01:32:23;;;;;;;5.90;5.30;;;;;;;17.01;60.47;94924.75;5117103;28;20511;-76
2023/07/28 01:34:49;;;;;;;5.10;4.57;;;;;;;16.93;61.03;94925.59;5116754;28;20465;-76
2023/07/28 01:37:16;;;;;;;4.93;4.53;;;;;;;16.94;60.72;94913.16;5116748;28;20443;-76
2023/07/28 01:39:43;;;;;;;5.10;4.60;;;;;;;16.90;61.27;94917.16;5116435;28;20446;-76
2023/07/28 01:42:10;;;;;;;5.37;4.97;;;;;;;16.87;61.20;94917.50;5080425;28;20446;-75
2023/07/28 01:44:38;;;;;;;4.23;3.93;;;;;;;16.93;61.64;94916.81;5116315;28;21728;-75
2023/07/28 01:47:06;;;;;;;5.30;4.90;;;;;;;16.91;61.79;94908.19;5116333;28;20430;-76
2023/07/28 01:49:32;;;;;;;5.30;4.80;;;;;;;16.78;61.96;94919.34;5116951;28;20444;-75
2023/07/28 01:51:59;;;;;;;5.00;4.50;;;;;;;16.86;61.56;94921.13;5116184;28;20545;-75
2023/07/28 01:54:26;;;;;;;5.40;4.80;;;;;;;16.82;61.98;94925.13;5116643;28;20448;-76
2023/07/28 01:56:53;;;;;;;4.77;4.47;;;;;;;16.81;61.67;94928.75;5116435;28;20452;-76
2023/07/28 01:59:20;;;;;;;4.60;4.30;;;;;;;16.74;62.70;94928.59;5116625;28;20456;-76
2023/07/28 02:01:48;;;;;;;6.07;4.77;;;;;;;16.79;62.56;94920.16;5116536;28;20477;-75
2023/07/28 02:04:15;;;;;;;5.10;4.70;;;;;;;16.76;61.88;94915.16;5079929;28;20446;-76
2023/07/28 02:06:42;;;;;;;5.20;4.80;;;;;;;16.68;62.35;94926.59;5116245;28;20438;-75
2023/07/28 02:09:12;;;;;;;9.03;4.73;;;;;;;16.64;62.49;94918.13;5116303;28;20478;-76
2023/07/28 02:11:39;;;;;;;5.37;4.90;;;;;;;16.62;62.28;94924.59;5116197;28;20442;-76
2023/07/28 02:14:06;;;;;;;5.87;5.20;;;;;;;16.57;62.25;94922.44;5116247;28;20449;-76
2023/07/28 02:16:33;;;;;;;5.10;4.70;;;;;;;16.57;62.15;94926.91;5115864;28;20442;-75
2023/07/28 02:19:01;;;;;;;11.63;5.07;;;;;;;16.50;63.00;94924.09;5115275;28;20453;-75
2023/07/28 02:21:28;;;;;;;4.57;4.20;;;;;;;16.32;63.17;94923.44;5115869;28;20439;-76
2023/07/28 02:23:54;;;;;;;5.83;5.40;;;;;;;16.30;62.61;94928.06;5115799;28;20895;-76
2023/07/28 02:26:21;;;;;;;5.03;4.63;;;;;;;16.32;63.23;94934.03;5115692;28;20450;-76
2023/07/28 02:28:48;;;;;;;5.10;4.70;;;;;;;16.24;63.18;94929.53;5115795;28;20486;-76
2023/07/28 02:31:15;;;;;;;5.90;5.47;;;;;;;16.18;63.46;94937.28;5115801;28;20453;-75
2023/07/28 02:33:41;;;;;;;4.80;4.47;;;;;;;16.14;63.17;94933.31;5115777;28;20445;-76
2023/07/28 02:36:10;;;;;;;4.47;4.17;;;;;;;16.15;63.02;94929.69;5115280;28;20440;-76
2023/07/28 02:38:36;;;;;;;5.70;5.30;;;;;;;16.18;62.62;94926.69;5115744;28;20447;-75
2023/07/28 02:41:04;;;;;;;4.93;4.60;;;;;;;16.14;63.14;94928.03;5115140;28;20447;-77
2023/07/28 02:43:30;;;;;;;5.20;4.80;;;;;;;16.10;63.26;94928.34;5115045;28;20542;-75
2023/07/28 02:45:58;;;;;;;5.23;4.83;;;;;;;16.02;63.98;94933.63;5115571;28;20477;-76
2023/07/28 02:48:25;;;;;;;5.10;4.70;;;;;;;16.06;63.58;94929.66;5115015;28;21001;-76
2023/07/28 02:50:51;;;;;;;5.10;4.70;;;;;;;15.93;64.02;94934.63;5115439;28;20438;-76
2023/07/28 02:53:22;;;;;;;5.23;4.67;;;;;;;15.76;64.75;94933.72;5115063;28;20453;-75
2023/07/28 02:55:49;;;;;;;5.17;4.80;;;;;;;15.82;64.82;94937.53;5079097;28;20454;-76
2023/07/28 02:58:19;;;;;;;5.33;4.83;;;;;;;15.83;64.69;94928.63;5115306;28;20501;-75
2023/07/28 03:00:46;;;;;;;5.00;4.70;;;;;;;15.83;64.47;94930.44;5114584;28;20443;-75
2023/07/28 03:03:13;;;;;;;4.90;4.50;;;;;;;15.81;64.64;94925.31;5115241;28;20473;-76
2023/07/28 03:05:41;;;;;;;5.40;4.90;;;;;;;15.87;63.99;94926.47;5114813;28;21635;-75
2023/07/28 03:08:08;;;;;;;5.23;4.73;;;;;;;15.86;64.10;94924.81;5114695;28;20485;-76
2023/07/28 03:10:36;;;;;;;6.30;5.63;;;;;;;15.87;64.43;94919.38;5078987;28;20443;-76
2023/07/28 03:13:05;;;;;;;5.63;5.03;;;;;;;15.79;64.43;94922.81;5114885;28;20449;-76
2023/07/28 03:15:32;;;;;;;6.40;5.30;;;;;;;15.66;65.13;94933.03;5121630;28;20455;-76
2023/07/28 03:17:59;;;;;;;8.60;4.53;;;;;;;15.65;65.27;94928.75;5129679;28;20448;-75
2023/07/28 03:20:26;;;;;;;5.70;5.30;;;;;;;15.63;65.91;94932.53;5120540;28;20452;-75
2023/07/28 03:22:54;;;;;;;5.93;5.43;;;;;;;15.65;65.66;94939.31;5114889;28;20463;-81
2023/07/28 03:25:21;;;;;;;5.30;4.90;;;;;;;16.77;63.96;94932.72;5115413;28;20545;-78
2023/07/28 03:27:49;;;;;;;4.13;3.73;;;;;;;17.73;61.76;94940.66;5114934;28;20452;-77
2023/07/28 03:30:16;;;;;;;5.67;4.30;;;;;;;18.06;59.16;94949.28;5113329;28;20446;-73
2023/07/28 03:32:43;;;;;;;4.33;3.93;;;;;;;18.27;57.56;94946.84;5113731;28;20440;-73
2023/07/28 03:35:10;;;;;;;4.63;4.23;;;;;;;18.15;56.59;94948.22;5113458;28;20453;-73
2023/07/28 03:37:36;;;;;;;4.70;4.30;;;;;;;18.08;58.56;94949.94;5113569;28;20444;-73
2023/07/28 03:40:04;;;;;;;4.13;3.80;;;;;;;18.60;57.10;94949.28;5113268;28;20450;-73
2023/07/28 03:42:30;;;;;;;4.20;3.90;;;;;;;18.64;56.01;94950.59;5113417;28;20436;-73
2023/07/28 03:44:59;;;;;;;4.80;4.50;;;;;;;18.81;55.98;94952.16;5112955;28;20486;-73
2023/07/28 03:47:26;;;;;;;4.70;4.40;;;;;;;18.98;55.51;94950.16;5113126;28;20447;-73
2023/07/28 03:49:52;;;;;;;4.37;4.07;;;;;;;18.99;54.92;94960.59;5113031;28;20823;-73
2023/07/28 03:52:19;;;;;;;4.33;3.70;;;;;;;19.02;55.31;94954.94;5093772;28;20428;-73
2023/07/28 03:54:46;;;;;;;5.40;4.57;;;;;;;19.15;54.38;94952.50;5113194;28;20448;-73
2023/07/28 03:57:13;;;;;;;12.40;4.67;;;;;;;18.96;53.65;94952.16;5093982;28;20453;-73
2023/07/28 03:59:39;;;;;;;4.77;4.47;;;;;;;18.88;54.29;94959.22;5112973;28;20447;-73
2023/07/28 04:02:08;;;;;;;4.40;4.03;;;;;;;19.07;55.30;94962.34;5112763;28;20444;-73
2023/07/28 04:04:36;;;;;;;4.60;4.30;;;;;;;19.40;53.30;94953.06;5112936;28;20447;-73
2023/07/28 04:07:03;;;;;;;7.33;4.17;;;;;;;19.64;52.79;94952.00;5112983;28;20451;-73
2023/07/28 04:09:29;;;;;;;4.73;4.33;;;;;;;20.21;51.67;94951.28;5112919;28;20501;-73
2023/07/28 04:11:56;;;;;;;4.83;4.20;;;;;;;20.54;50.07;94950.88;5112815;28;20438;-73
2023/07/28 04:14:23;;;;;;;4.60;4.20;;;;;;;20.89;48.84;94963.31;5113041;28;20443;-73
2023/07/28 04:16:50;;;;;;;4.23;3.83;;;;;;;21.49;47.03;94969.13;5112366;28;20436;-73
2023/07/28 04:19:18;;;;;;;9.80;5.13;;;;;;;21.88;46.12;94963.19;5112790;28;20446;-74
2023/07/28 04:21:45;;;;;;;3.93;3.63;;;;;;;22.32;44.73;94970.03;5112153;28;20490;-73
2023/07/28 04:24:12;;;;;;;4.03;3.77;;;;;;;22.64;43.80;94966.63;5111835;28;20441;-73
2023/07/28 04:26:39;;;;;;;4.83;3.73;;;;;;;22.77;43.46;94963.94;5102799;28;21341;-74
2023/07/28 04:29:06;;;;;;;3.87;3.47;;;;;;;23.07;42.38;94968.97;5102006;28;20484;-73
2023/07/28 04:31:32;;;;;;;4.07;3.77;;;;;;;23.22;42.33;94963.41;5085405;28;20464;-73
2023/07/28 04:34:03;;;;;;;3.17;2.97;;;;;;;23.42;43.00;94974.97;5097763;28;20927;-73
2023/07/28 04:36:32;;;;;;;3.87;3.57;;;;;;;23.61;42.54;94966.09;5108173;28;20471;-74
2023/07/28 04:38:59;;;;;;;3.30;3.07;;;;;;;24.15;45.14;94964.09;5101287;28;20898;-77
2023/07/28 04:41:28;;;;;;;5.97;3.30;;;;;;;24.31;43.32;94966.34;5109283;28;20925;-77
2023/07/28 04:43:58;;;;;;;3.23;3.03;;;;;;;24.69;41.26;94961.81;5113423;28;20451;-76
2023/07/28 04:46:28;;;;;;;3.40;3.10;;;;;;;25.13;40.77;94961.94;5112073;28;20813;-77
2023/07/28 04:51:42;;;;;;;3.70;3.40;;;;;;;25.81;38.88;94959.34;5067785;28;20512;-74
2023/07/28 04:54:09;;;;;;;3.70;3.40;;;;;;;25.98;37.11;94970.31;5092818;28;20458;-74
2023/07/28 04:56:36;;;;;;;5.80;3.93;;;;;;;25.95;36.99;94971.59;5111571;28;20439;-73
2023/07/28 04:59:06;;;;;;;4.03;3.63;;;;;;;25.92;36.27;94962.09;5111384;28;20813;-74
2023/07/28 05:01:40;;;;;;;3.73;3.50;;;;;;;25.90;36.29;94966.06;5111329;28;20538;-74
2023/07/28 05:04:07;;;;;;;3.30;3.10;;;;;;;25.76;36.94;94962.69;5111280;28;20477;-73
2023/07/28 05:06:44;;;;;;;5.70;3.83;;;;;;;25.82;37.17;94958.28;5111128;28;20454;-73
2023/07/28 05:09:28;;;;;;;4.83;3.50;;;;;;;25.69;43.03;94956.53;5092712;28;20515;-73
2023/07/28 05:11:56;;;;;;;3.70;3.50;;;;;;;25.84;38.78;94969.63;5111399;28;20439;-73
2023/07/28 05:14:30;;;;;;;3.90;3.50;;;;;;;26.04;37.83;94966.75;5111146;28;20457;-73
2023/07/28 05:17:00;;;;;;;3.50;3.30;;;;;;;26.05;37.87;94966.53;5111579;28;20446;-74
2023/07/28 05:19:28;;;;;;;3.97;3.63;;;;;;;26.00;37.19;94963.66;5111211;28;20439;-76
2023/07/28 05:21:57;;;;;;;4.03;3.73;;;;;;;26.07;36.43;94963.59;5107173;28;20455;-75
2023/07/28 05:24:31;;;;;;;3.70;3.20;;;;;;;26.27;36.23;94964.19;5110736;28;20451;-75
2023/07/28 05:27:03;;;;;;;5.80;3.80;;;;;;;26.30;36.37;94960.22;5111207;28;20539;-75
2023/07/28 05:29:32;;;;;;;3.97;3.43;;;;;;;26.37;35.98;94967.22;5111170;28;20853;-73
2023/07/28 05:32:03;;;;;;;3.93;3.63;;;;;;;26.41;35.83;94962.19;5110874;28;20473;-72
2023/07/28 05:34:33;;;;;;;5.20;3.80;;;;;;;26.63;35.69;94955.28;5110702;28;20443;-75
2023/07/28 05:37:02;;;;;;;6.10;3.63;;;;;;;26.62;35.86;94959.03;5092241;28;20959;-75
2023/07/28 05:39:33;;;;;;;4.97;4.00;;;;;;;26.63;36.25;94962.53;5111226;28;20431;-74
2023/07/28 05:42:00;;;;;;;3.80;3.40;;;;;;;26.84;37.20;94954.75;5110794;28;20431;-72
2023/07/28 05:44:28;;;;;;;6.37;3.53;;;;;;;25.71;37.38;94954.44;5110903;28;20446;-75
2023/07/28 05:46:54;;;;;;;5.20;3.50;;;;;;;25.11;37.54;94959.47;5111029;28;20439;-75
2023/07/28 05:49:23;;;;;;;3.77;3.53;;;;;;;24.60;39.32;94954.25;5070376;28;20479;-73
2023/07/28 05:51:49;;;;;;;4.20;3.70;;;;;;;24.79;39.95;94957.81;5091194;28;20451;-75
2023/07/28 05:54:19;;;;;;;4.80;4.23;;;;;;;25.14;38.78;94959.03;5094677;28;20440;-75
2023/07/28 05:56:49;;;;;;;4.07;3.77;;;;;;;25.13;38.45;94946.66;5113798;28;20443;-74
2023/07/28 05:59:16;;;;;;;4.87;4.37;;;;;;;24.54;40.48;94944.34;5112956;28;20470;-74
2023/07/28 06:01:46;;;;;;;9.53;5.27;;;;;;;24.12;41.88;94943.91;5113071;28;20442;-75
2023/07/28 06:04:14;;;;;;;6.17;5.53;;;;;;;23.94;42.96;94941.06;5114601;28;20450;-73
2023/07/28 06:06:41;;;;;;;4.33;4.03;;;;;;;23.58;44.65;94946.94;5114567;28;20815;-73
2023/07/28 06:09:11;;;;;;;5.43;5.03;;;;;;;23.08;45.26;94951.88;5114637;28;20996;-73
2023/07/28 06:11:40;;;;;;;5.83;5.33;;;;;;;23.12;45.52;94942.38;5114453;28;20453;-73
2023/07/28 06:14:11;;;;;;;5.77;5.03;;;;;;;22.40;47.15;94945.75;5114431;28;20441;-73
2023/07/28 06:16:39;;;;;;;8.60;5.37;;;;;;;22.54;47.38;94950.94;5114238;28;20446;-73
2023/07/28 06:19:08;;;;;;;5.67;5.10;;;;;;;22.94;46.32;94936.84;5114251;28;20928;-73
2023/07/28 06:21:35;;;;;;;6.83;4.90;;;;;;;23.12;45.34;94937.03;5114390;28;20447;-73
2023/07/28 06:24:02;;;;;;;5.37;4.87;;;;;;;23.17;45.82;94943.44;5114900;28;20448;-73
2023/07/28 06:26:28;;;;;;;5.87;4.70;;;;;;;23.46;45.21;94933.31;5114816;28;20452;-73
2023/07/28 06:28:55;;;;;;;9.43;5.17;;;;;;;24.01;43.65;94931.97;5115124;28;20507;-73
2023/07/28 06:31:23;;;;;;;5.93;5.13;;;;;;;24.12;42.98;94933.16;5114794;28;20916;-73
2023/07/28 06:33:50;;;;;;;6.80;5.20;;;;;;;24.03;42.69;94924.56;5115273;28;20445;-74
2023/07/28 06:36:17;;;;;;;5.63;5.13;;;;;;;24.49;42.23;94928.88;5114932;28;20441;-73
2023/07/28 06:38:49;;;;;;;5.00;4.50;;;;;;;24.87;41.02;94926.19;5095706;28;20439;-73
2023/07/28 06:41:18;;;;;;;5.10;4.70;;;;;;;24.61;41.23;94921.81;5114998;28;20443;-74
2023/07/28 06:43:48;;;;;;;5.03;4.57;;;;;;;25.08;40.35;94926.88;5114849;28;20447;-73
2023/07/28 06:46:15;;;;;;;4.67;4.17;;;;;;;25.14;40.69;94926.81;5118620;28;20462;-74
2023/07/28 06:48:46;;;;;;;9.53;4.80;;;;;;;25.00;39.99;94920.75;5119816;28;20439;-74
2023/07/28 06:51:15;;;;;;;4.77;4.33;;;;;;;24.95;39.65;94930.47;5115052;28;20452;-74
2023/07/28 06:53:44;;;;;;;4.87;4.47;;;;;;;24.45;41.49;94926.84;5029462;28;20798;-74
2023/07/28 06:56:11;;;;;;;5.63;4.50;;;;;;;24.45;40.86;94922.31;5062071;28;20443;-74
2023/07/28 06:58:39;;;;;;;5.13;4.63;;;;;;;23.99;41.99;94933.19;5113793;28;20454;-74
2023/07/28 07:01:08;;;;;;;5.37;4.87;;;;;;;24.38;42.52;94937.63;5113385;27;20451;-74
2023/07/28 07:03:35;;;;;;;5.30;4.90;;;;;;;24.38;40.90;94929.59;5111272;28;20518;-74
2023/07/28 07:06:08;;;;;;;4.70;4.37;;;;;;;24.56;41.41;94918.13;5113123;28;20454;-74
2023/07/28 07:08:34;;;;;;;5.10;4.70;;;;;;;24.87;40.59;94926.19;5113163;28;20446;-74
2023/07/28 07:11:05;;;;;;;5.10;4.70;;;;;;;24.77;40.82;94922.31;5113319;28;20481;-74
2023/07/28 07:13:32;;;;;;;7.53;5.60;;;;;;;25.14;40.29;94921.44;5113296;28;20439;-74
2023/07/28 07:16:01;;;;;;;4.87;4.33;;;;;;;25.46;40.35;94918.72;5113241;28;20885;-74
2023/07/28 07:18:28;;;;;;;6.17;4.10;;;;;;;25.53;39.56;94919.47;5113329;28;20526;-74
2023/07/28 07:20:54;;;;;;;4.67;4.27;;;;;;;25.73;39.35;94913.91;5077127;28;20857;-74
2023/07/28 07:23:24;;;;;;;9.03;4.97;;;;;;;25.53;39.65;94925.66;5113103;28;20447;-74
2023/07/28 07:25:51;;;;;;;4.40;4.10;;;;;;;25.59;39.08;94923.94;5077235;28;20799;-74
2023/07/28 07:28:19;;;;;;;4.17;3.83;;;;;;;25.46;39.32;94919.53;5112719;28;20901;-73
2023/07/28 07:30:46;;;;;;;4.90;4.53;;;;;;;25.66;39.81;94918.50;5112785;28;20988;-74
2023/07/28 07:33:15;;;;;;;5.07;4.67;;;;;;;25.68;38.35;94916.44;5112720;28;20454;-74
2023/07/28 07:35:42;;;;;;;4.60;4.23;;;;;;;25.98;39.34;94922.72;5112657;28;20439;-74
2023/07/28 07:38:10;;;;;;;5.07;4.47;;;;;;;26.20;39.56;94921.22;5113224;28;20451;-74
2023/07/28 07:40:38;;;;;;;4.63;4.17;;;;;;;26.06;38.67;94921.63;5112547;28;20501;-74
2023/07/28 07:43:05;;;;;;;10.00;4.50;;;;;;;25.57;39.00;94923.34;5112864;28;20470;-74
2023/07/28 07:45:32;;;;;;;5.07;4.50;;;;;;;25.73;40.30;94925.47;5076421;28;20474;-74
2023/07/28 07:47:59;;;;;;;9.03;4.23;;;;;;;26.13;39.33;94927.75;5112541;28;20812;-74
2023/07/28 07:50:26;;;;;;;5.50;4.67;;;;;;;25.83;38.13;94931.19;5112245;28;20964;-74
2023/07/28 07:52:53;;;;;;;5.50;4.50;;;;;;;25.02;39.83;94929.41;5112425;28;20454;-74
2023/07/28 07:55:19;;;;;;;4.37;3.97;;;;;;;25.45;39.82;94938.56;5112525;28;20948;-73
2023/07/28 07:57:48;;;;;;;4.47;3.27;;;;;;;26.01;39.13;94932.22;5112512;28;20492;-73
2023/07/28 08:00:15;;;;;;;3.73;3.53;;;;;;;26.40;37.85;94934.47;5112306;28;20443;-74
2023/07/28 08:02:42;;;;;;;4.27;3.87;;;;;;;26.54;37.74;94938.59;5112337;28;20435;-74
2023/07/28 08:05:09;;;;;;;5.43;4.43;;;;;;;26.62;38.30;94939.38;5112091;28;20439;-73
2023/07/28 08:07:36;;;;;;;5.07;4.43;;;;;;;26.35;38.40;94937.03;5112252;28;20941;-73
2023/07/28 08:10:04;;;;;;;6.57;3.80;;;;;;;26.43;38.03;94933.19;5112132;28;20482;-74
2023/07/28 08:12:31;;;;;;;6.03;4.40;;;;;;;26.72;37.08;94947.72;5112274;28;20493;-74
2023/07/28 08:14:59;;;;;;;5.67;3.87;;;;;;;26.85;36.82;94939.41;5112030;28;20486;-74
2023/07/28 08:17:26;;;;;;;4.37;4.00;;;;;;;26.58;37.92;94932.78;5111619;28;20451;-73
2023/07/28 08:19:54;;;;;;;6.77;4.10;;;;;;;26.38;38.21;94933.06;5112230;28;20442;-74
2023/07/28 08:22:21;;;;;;;5.23;4.37;;;;;;;26.37;37.42;94932.22;5112100;28;20458;-74
2023/07/28 08:24:48;;;;;;;3.87;3.53;;;;;;;26.61;37.87;94930.47;5111682;28;20444;-74
2023/07/28 08:27:17;;;;;;;7.00;4.37;;;;;;;26.80;37.53;94925.84;5111831;28;20500;-73
2023/07/28 08:29:45;;;;;;;5.83;3.97;;;;;;;26.48;38.07;94922.56;5111684;28;20486;-74
2023/07/28 08:32:13;;;;;;;6.43;4.07;;;;;;;26.46;37.19;94922.78;5111787;27;20971;-74
2023/07/28 08:34:42;;;;;;;4.50;4.10;;;;;;;26.83;37.44;94925.38;5111727;28;20454;-74
2023/07/28 08:37:10;;;;;;;4.13;3.83;;;;;;;27.11;37.40;94930.97;5111513;28;20963;-74
2023/07/28 08:39:37;;;;;;;5.23;4.80;;;;;;;26.92;37.47;94924.00;5111713;28;21187;-74
2023/07/28 08:42:05;;;;;;;4.50;4.10;;;;;;;26.88;37.42;94916.59;5111508;28;20446;-74
2023/07/28 08:44:33;;;;;;;4.40;4.00;;;;;;;26.12;37.95;94910.78;5111228;28;20458;-73
2023/07/28 08:47:04;;;;;;;4.20;3.43;;;;;;;26.45;38.67;94918.44;5111760;28;20455;-73
2023/07/28 08:49:36;;;;;;;4.17;3.57;;;;;;;26.89;36.99;94911.00;5111628;28;20431;-73
2023/07/28 08:52:06;;;;;;;5.57;4.37;;;;;;;27.07;36.39;94908.25;5111759;28;20934;-74
2023/07/28 08:54:33;;;;;;;13.83;4.63;;;;;;;26.84;36.85;94910.84;5111600;28;20446;-74
2023/07/28 08:57:01;;;;;;;5.67;4.10;;;;;;;27.12;36.55;94913.75;5111814;28;20466;-74
2023/07/28 08:59:29;;;;;;;5.40;4.20;;;;;;;27.04;36.82;94903.31;5111733;28;20454;-73
2023/07/28 09:02:01;;;;;;;5.37;4.30;;;;;;;27.28;36.55;94900.66;5111988;28;20482;-73
2023/07/28 09:04:28;;;;;;;3.73;3.47;;;;;;;27.19;37.30;94902.06;5111481;28;20496;-73
2023/07/28 09:06:59;;;;;;;4.17;3.77;;;;;;;27.13;36.06;94901.94;5111614;28;20478;-73
2023/07/28 09:09:33;;;;;;;4.17;3.87;;;;;;;27.25;36.66;94887.66;5111453;28;20470;-74
2023/07/28 09:12:03;;;;;;;4.07;3.77;;;;;;;27.27;36.42;94885.56;5111452;28;20470;-74
2023/07/28 09:14:39;;;;;;;6.00;3.63;;;;;;;27.24;36.75;94869.84;5111460;28;20455;-73
2023/07/28 09:17:10;;;;;;;4.10;3.80;;;;;;;27.03;35.51;94872.06;5111364;28;20810;-73
2023/07/28 09:19:53;;;;;;;4.37;3.97;;;;;;;27.21;36.45;94873.84;5111440;28;20447;-74
2023/07/28 09:22:24;;;;;;;3.77;3.47;;;;;;;27.17;36.63;94853.78;5111323;28;20944;-74
2023/07/28 09:24:57;;;;;;;5.10;3.80;;;;;;;27.02;36.92;94864.22;5111396;28;20585;-73
2023/07/28 09:27:29;;;;;;;4.20;3.90;;;;;;;27.18;36.85;94850.06;5075652;28;20524;-74
2023/07/28 09:29:57;;;;;;;3.80;3.50;;;;;;;27.32;36.64;94847.94;5115103;28;20514;-74
2023/07/28 09:32:33;;;;;;;3.57;3.27;;;;;;;27.34;36.49;94845.81;5115274;28;20489;-74
2023/07/28 09:35:13;;;;;;;3.70;3.40;;;;;;;26.95;36.38;94848.13;5115108;28;20449;-74
2023/07/28 09:37:44;;;;;;;4.40;3.40;;;;;;;27.00;36.84;94834.81;5115267;28;20806;-73
2023/07/28 09:40:13;;;;;;;4.53;4.07;;;;;;;27.22;36.64;94831.56;5115042;28;20821;-73
2023/07/28 09:42:40;;;;;;;4.17;3.77;;;;;;;27.20;35.45;94828.28;5114986;28;20442;-74
2023/07/28 09:45:08;;;;;;;4.03;3.53;;;;;;;27.20;36.15;94820.19;5114948;28;20466;-73
2023/07/28 09:47:39;;;;;;;4.97;4.50;;;;;;;27.24;37.19;94822.16;5115863;28;20465;-75
2023/07/28 09:50:13;;;;;;;4.13;3.87;;;;;;;27.44;35.37;94816.41;5115455;28;20489;-73
2023/07/28 09:52:47;;;;;;;4.90;4.50;;;;;;;27.59;35.11;94810.53;5114979;28;20439;-74
2023/07/28 09:55:16;;;;;;;3.37;3.17;;;;;;;27.59;34.86;94810.53;5114831;28;20458;-74
2023/07/28 09:57:49;;;;;;;10.10;4.40;;;;;;;27.77;33.72;94818.50;5114649;28;20439;-74
2023/07/28 10:00:18;;;;;;;4.37;3.97;;;;;;;27.82;34.21;94817.78;5114578;28;20443;-74
2023/07/28 10:02:46;;;;;;;5.33;3.47;;;;;;;27.20;36.82;94810.22;5114831;28;20443;-74
2023/07/28 10:05:15;;;;;;;4.50;4.10;;;;;;;27.58;35.42;94815.09;5114945;28;20944;-75
2023/07/28 10:07:47;;;;;;;3.57;3.33;;;;;;;27.41;35.38;94814.19;5115196;28;20465;-79
2023/07/28 10:10:18;;;;;;;3.73;3.43;;;;;;;27.33;35.63;94806.47;5114663;28;20482;-74
2023/07/28 10:12:50;;;;;;;4.73;3.50;;;;;;;27.20;35.02;94806.72;5114623;28;20798;-74
2023/07/28 10:15:19;;;;;;;5.30;3.70;;;;;;;27.06;34.97;94812.31;5114794;28;20454;-73
2023/07/28 10:17:48;;;;;;;5.57;3.47;;;;;;;27.21;39.45;94809.19;5114484;28;20442;-73
2023/07/28 10:20:32;;;;;;;4.13;3.73;;;;;;;27.47;41.25;94802.47;5111732;28;20933;-75
2023/07/28 10:23:14;;;;;;;4.60;4.20;;;;;;;27.85;35.31;94803.81;5078223;28;20467;-76
2023/07/28 10:25:44;;;;;;;4.10;3.70;;;;;;;28.01;38.31;94800.34;5114993;28;21179;-74
2023/07/28 10:28:28;;;;;;;4.40;4.10;;;;;;;27.92;34.54;94802.63;5115728;28;20454;-73
2023/07/28 10:30:58;;;;;;;5.40;4.37;;;;;;;27.86;37.26;94797.38;5119407;28;20997;-73
2023/07/28 10:33:30;;;;;;;5.07;4.67;;;;;;;27.86;34.78;94790.09;5117389;28;20521;-74
2023/07/28 10:35:58;;;;;;;5.90;4.50;;;;;;;27.85;36.82;94787.63;5113887;28;20442;-73
2023/07/28 10:38:35;;;;;;;7.70;4.07;;;;;;;28.08;34.55;94782.16;5113670;28;20443;-73
2023/07/28 10:41:14;;;;;;;12.50;5.10;;;;;;;28.32;35.56;94777.47;5094652;28;20492;-74
2023/07/28 10:43:47;;;;;;;5.07;4.60;;;;;;;28.39;34.39;94775.47;5113917;27;20446;-74
2023/07/28 10:46:17;;;;;;;5.40;4.47;;;;;;;28.55;39.86;94771.13;5113542;28;21074;-74
2023/07/28 10:48:48;;;;;;;4.73;4.30;;;;;;;28.65;35.55;94766.75;5113825;28;20443;-75
2023/07/28 10:51:22;;;;;;;7.43;3.70;;;;;;;28.72;34.36;94766.56;5114244;28;20483;-74
2023/07/28 10:53:52;;;;;;;5.30;4.40;;;;;;;28.72;38.13;94771.97;5113648;28;20532;-74
2023/07/28 10:56:20;;;;;;;6.00;4.00;;;;;;;28.73;34.58;94762.78;5077994;28;20446;-75
2023/07/28 10:58:46;;;;;;;8.10;4.30;;;;;;;28.80;33.88;94757.22;5077357;28;20427;-74
2023/07/28 11:01:16;;;;;;;4.20;3.90;;;;;;;28.84;33.24;94759.19;5113647;28;20793;-75
2023/07/28 11:03:43;;;;;;;5.03;4.53;;;;;;;28.85;35.12;94750.03;5114029;28;20479;-73
2023/07/28 11:06:09;;;;;;;8.53;4.57;;;;;;;29.02;35.08;94746.53;5113510;28;20918;-74
2023/07/28 11:08:36;;;;;;;4.60;4.20;;;;;;;28.78;32.56;94733.16;5113428;28;20443;-73
2023/07/28 11:11:07;;;;;;;6.30;3.93;;;;;;;28.79;32.40;94733.97;5112693;28;20486;-74
2023/07/28 11:13:34;;;;;;;4.10;3.80;;;;;;;28.79;33.53;94729.41;5110373;28;20439;-74
2023/07/28 11:16:04;;;;;;;4.50;4.10;;;;;;;28.87;33.79;94733.59;5112238;28;20932;-74
2023/07/28 11:18:31;;;;;;;5.80;4.60;;;;;;;29.05;32.80;94729.81;5076756;28;20439;-74
2023/07/28 11:20:59;;;;;;;8.70;4.07;;;;;;;29.10;31.91;94728.00;5093011;28;20487;-73
2023/07/28 11:23:26;;;;;;;3.87;3.57;;;;;;;29.14;32.67;94722.91;5092824;28;20447;-73
2023/07/28 11:25:55;;;;;;;4.33;4.03;;;;;;;28.90;32.12;94720.41;5093310;28;20448;-73
2023/07/28 11:28:23;;;;;;;5.50;3.90;;;;;;;28.80;32.91;94722.09;5104780;28;20443;-73
2023/07/28 11:30:50;;;;;;;5.73;3.90;;;;;;;28.99;32.60;94716.22;5113715;28;20483;-73
2023/07/28 11:33:17;;;;;;;6.40;4.30;;;;;;;29.07;32.36;94709.56;5113324;28;20451;-74
2023/07/28 11:35:46;;;;;;;4.83;4.33;;;;;;;29.07;32.43;94703.34;5113936;27;20442;-73
2023/07/28 11:38:15;;;;;;;5.87;4.50;;;;;;;28.85;31.86;94706.81;5113801;28;20526;-73
2023/07/28 11:40:43;;;;;;;9.40;4.50;;;;;;;28.70;34.04;94695.78;5113497;28;20450;-73
2023/07/28 11:43:11;;;;;;;4.47;4.07;;;;;;;28.55;32.85;94693.66;5094367;28;20439;-73